Time;durP1;ratioP1;P1;durP2;ratioP2;P2;SDS_P1;SDS_P2;PMS_P1;PMS_P2;Temp;Humidity;BMP_temperature;BMP_pressure;BME280_temperature;BME280_humidity;BME280_pressure;Samples;Min_cycle;Max_cycle;Signal;HPM_P1;HPM_P2
2023/05/28 00:00:27;;;;;;;;;;;;;;;;;;2213407;59;1936;-23
2023/05/28 00:02:57;;;;;;;;;;;;;;;;;;2214648;66;1633;-23
2023/05/28 00:05:27;;;;;;;;;;;;;;;;;;2210492;66;1147;-23
2023/05/28 00:08:00;;;;;;;;;;;;;;;;;;2213832;66;1139;-23
2023/05/28 00:10:30;;;;;;;;;;;;;;;;;;2213514;59;1303;-23
2023/05/28 00:13:01;;;;;;;;;;;;;;;;;;2207623;66;1190;-23
2023/05/28 00:15:31;;;;;;;;;;;;;;;;;;2213741;66;1111;-23
2023/05/28 00:18:01;;;;;;;;;;;;;;;;;;2210245;66;1584;-23
2023/05/28 00:20:34;;;;;;;;;;;;;;;;;;2213367;66;2353;-23
2023/05/28 00:23:05;;;;;;;;;;;;;;;;;;2213771;59;2063;-23
2023/05/28 00:25:36;;;;;;;;;;;;;;;;;;2213193;59;1706;-23
2023/05/28 00:28:06;;;;;;;;;;;;;;;;;;2213967;66;1215;-23
2023/05/28 00:30:36;;;;;;;;;;;;;;;;;;2213381;66;1898;-23
2023/05/28 00:33:06;;;;;;;;;;;;;;;;;;2213699;59;1372;-23
2023/05/28 00:35:37;;;;;;;;;;;;;;;;;;2213309;59;1282;-23
2023/05/28 00:38:07;;;;;;;;;;;;;;;;;;2213630;59;1853;-23
2023/05/28 00:40:41;;;;;;;;;;;;;;;;;;2213820;66;1986;-23
2023/05/28 00:43:12;;;;;;;;;;;;;;;;;;2213490;66;1275;-23
2023/05/28 00:45:42;;;;;;;;;;;;;;;;;;2213948;66;1595;-23
2023/05/28 00:48:12;;;;;;;;;;;;;;;;;;2209644;59;2221;-23
2023/05/28 00:50:43;;;;;;;;;;;;;;;;;;2213144;59;1819;-23
2023/05/28 00:53:13;;;;;;;;;;;;;;;;;;2213470;59;1794;-23
2023/05/28 00:55:44;;;;;;;;;;;;;;;;;;2213721;59;1251;-23
2023/05/28 00:58:15;;;;;;;;;;;;;;;;;;2213779;59;2163;-23
2023/05/28 01:00:46;;;;;;;;;;;;;;;;;;2214190;59;1980;-23
2023/05/28 01:03:16;;;;;;;;;;;;;;;;;;2215081;66;1279;-23
2023/05/28 01:05:47;;;;;;;;;;;;;;;;;;2214786;66;1201;-23
2023/05/28 01:08:17;;;;;;;;;;;;;;;;;;2214387;66;1444;-23
2023/05/28 01:10:48;;;;;;;;;;;;;;;;;;2214490;59;1297;-23
2023/05/28 01:13:18;;;;;;;;;;;;;;;;;;2214299;66;1955;-23
2023/05/28 01:15:48;;;;;;;;;;;;;;;;;;2207648;66;1608;-23
2023/05/28 01:18:19;;;;;;;;;;;;;;;;;;2213884;66;1377;-23
2023/05/28 01:20:49;;;;;;;;;;;;;;;;;;2214660;66;1933;-23
2023/05/28 01:23:20;;;;;;;;;;;;;;;;;;2209319;67;2010;-23
2023/05/28 01:25:52;;;;;;;;;;;;;;;;;;2214851;66;1195;-23
2023/05/28 01:28:25;;;;;;;;;;;;;;;;;;2213948;66;1207;-23
2023/05/28 01:30:55;;;;;;;;;;;;;;;;;;2213666;66;1626;-23
2023/05/28 01:33:25;;;;;;;;;;;;;;;;;;2214047;59;1968;-22
2023/05/28 01:35:57;;;;;;;;;;;;;;;;;;2214148;59;2418;-23
2023/05/28 01:38:28;;;;;;;;;;;;;;;;;;2215392;59;1538;-23
2023/05/28 01:41:02;;;;;;;;;;;;;;;;;;2213840;66;1935;-23
2023/05/28 01:43:32;;;;;;;;;;;;;;;;;;2214020;66;1385;-23
2023/05/28 01:46:03;;;;;;;;;;;;;;;;;;2214842;66;1653;-23
2023/05/28 01:48:33;;;;;;;;;;;;;;;;;;2213237;59;2017;-23
2023/05/28 01:51:04;;;;;;;;;;;;;;;;;;2213229;59;1653;-23
2023/05/28 01:53:34;;;;;;;;;;;;;;;;;;2213846;66;1746;-23
2023/05/28 01:56:05;;;;;;;;;;;;;;;;;;2215450;59;1403;-23
2023/05/28 01:58:35;;;;;;;;;;;;;;;;;;2214699;59;2134;-23
2023/05/28 02:01:05;;;;;;;;;;;;;;;;;;2214076;59;2123;-23
2023/05/28 02:03:35;;;;;;;;;;;;;;;;;;2208061;66;1118;-23
2023/05/28 02:06:06;;;;;;;;;;;;;;;;;;2213630;66;1318;-23
2023/05/28 02:08:36;;;;;;;;;;;;;;;;;;2213230;59;1485;-23
2023/05/28 02:11:06;;;;;;;;;;;;;;;;;;2210711;66;1478;-23
2023/05/28 02:13:39;;;;;;;;;;;;;;;;;;2214260;59;1505;-27
2023/05/28 02:16:10;;;;;;;;;;;;;;;;;;2213024;66;1441;-23
2023/05/28 02:18:41;;;;;;;;;;;;;;;;;;2213729;66;1196;-23
2023/05/28 02:21:11;;;;;;;;;;;;;;;;;;2213999;66;1944;-23
2023/05/28 02:23:46;;;;;;;;;;;;;;;;;;2212324;66;1377;-23
2023/05/28 02:26:17;;;;;;;;;;;;;;;;;;2212792;66;1178;-23
2023/05/28 02:28:47;;;;;;;;;;;;;;;;;;2214351;66;1338;-23
2023/05/28 02:31:17;;;;;;;;;;;;;;;;;;2209341;66;2189;-23
2023/05/28 02:33:47;;;;;;;;;;;;;;;;;;2210676;66;1315;-23
2023/05/28 02:36:18;;;;;;;;;;;;;;;;;;2212900;59;1383;-23
2023/05/28 02:38:48;;;;;;;;;;;;;;;;;;2210473;59;1494;-23
2023/05/28 02:41:18;;;;;;;;;;;;;;;;;;2208943;66;1949;-23
2023/05/28 02:43:49;;;;;;;;;;;;;;;;;;2213842;66;1426;-23
2023/05/28 02:46:19;;;;;;;;;;;;;;;;;;2213402;66;1230;-23
2023/05/28 02:48:49;;;;;;;;;;;;;;;;;;2213797;59;2663;-23
2023/05/28 02:51:19;;;;;;;;;;;;;;;;;;2209050;59;1465;-22
2023/05/28 02:53:49;;;;;;;;;;;;;;;;;;2208495;66;1547;-23
2023/05/28 02:56:21;;;;;;;;;;;;;;;;;;2214507;59;1991;-23
2023/05/28 02:58:52;;;;;;;;;;;;;;;;;;2215158;59;2076;-23
2023/05/28 03:01:23;;;;;;;;;;;;;;;;;;2215181;59;1935;-23
2023/05/28 03:03:53;;;;;;;;;;;;;;;;;;2214514;66;1441;-23
2023/05/28 03:06:23;;;;;;;;;;;;;;;;;;2210733;66;1400;-23
2023/05/28 03:08:53;;;;;;;;;;;;;;;;;;2213970;66;1363;-23
2023/05/28 03:11:23;;;;;;;;;;;;;;;;;;2213958;66;1378;-23
2023/05/28 03:13:54;;;;;;;;;;;;;;;;;;2214431;66;1426;-23
2023/05/28 03:16:25;;;;;;;;;;;;;;;;;;2213959;66;1150;-23
2023/05/28 03:18:55;;;;;;;;;;;;;;;;;;2211295;66;1670;-23
2023/05/28 03:21:25;;;;;;;;;;;;;;;;;;2213150;66;1990;-23
2023/05/28 03:23:56;;;;;;;;;;;;;;;;;;2214491;66;1292;-23
2023/05/28 03:26:26;;;;;;;;;;;;;;;;;;2211261;66;1400;-23
2023/05/28 03:28:56;;;;;;;;;;;;;;;;;;2214443;66;2136;-23
2023/05/28 03:31:27;;;;;;;;;;;;;;;;;;2213786;66;1380;-23
2023/05/28 03:33:57;;;;;;;;;;;;;;;;;;2212664;59;1495;-23
2023/05/28 03:36:29;;;;;;;;;;;;;;;;;;2210433;59;1439;-23
2023/05/28 03:38:59;;;;;;;;;;;;;;;;;;2213446;59;1459;-23
2023/05/28 03:41:29;;;;;;;;;;;;;;;;;;2213624;66;1944;-23
2023/05/28 03:43:59;;;;;;;;;;;;;;;;;;2214772;66;1359;-23
2023/05/28 03:46:30;;;;;;;;;;;;;;;;;;2213980;66;2351;-23
2023/05/28 03:49:00;;;;;;;;;;;;;;;;;;2213506;66;1369;-23
2023/05/28 03:51:31;;;;;;;;;;;;;;;;;;2214903;59;1316;-23
2023/05/28 03:54:02;;;;;;;;;;;;;;;;;;2214153;59;1137;-23
2023/05/28 03:56:34;;;;;;;;;;;;;;;;;;2213473;66;1326;-23
2023/05/28 03:59:04;;;;;;;;;;;;;;;;;;2213815;59;1956;-23
2023/05/28 04:01:36;;;;;;;;;;;;;;;;;;2213593;59;1944;-23
2023/05/28 04:04:06;;;;;;;;;;;;;;;;;;2213337;66;1787;-23
2023/05/28 04:06:36;;;;;;;;;;;;;;;;;;2210092;66;1391;-23
2023/05/28 04:09:10;;;;;;;;;;;;;;;;;;2209875;59;1273;-23
2023/05/28 04:11:40;;;;;;;;;;;;;;;;;;2212995;66;2010;-23
2023/05/28 04:14:10;;;;;;;;;;;;;;;;;;2213985;66;1155;-23
2023/05/28 04:16:41;;;;;;;;;;;;;;;;;;2213781;66;1613;-23
2023/05/28 04:19:11;;;;;;;;;;;;;;;;;;2213742;66;1654;-23
2023/05/28 04:21:41;;;;;;;;;;;;;;;;;;2213634;66;1945;-23
2023/05/28 04:24:11;;;;;;;;;;;;;;;;;;2213492;66;2187;-23
2023/05/28 04:26:41;;;;;;;;;;;;;;;;;;2213872;66;1951;-23
2023/05/28 04:29:15;;;;;;;;;;;;;;;;;;2213444;66;1193;-23
2023/05/28 04:31:47;;;;;;;;;;;;;;;;;;2213617;66;2023;-23
2023/05/28 04:34:17;;;;;;;;;;;;;;;;;;2213844;66;1332;-23
2023/05/28 04:36:48;;;;;;;;;;;;;;;;;;2213797;59;1289;-23
2023/05/28 04:39:19;;;;;;;;;;;;;;;;;;2213364;59;1302;-23
2023/05/28 04:41:49;;;;;;;;;;;;;;;;;;2214571;66;2014;-23
2023/05/28 04:44:20;;;;;;;;;;;;;;;;;;2210331;66;1169;-23
2023/05/28 04:46:51;;;;;;;;;;;;;;;;;;2214246;66;2223;-23
2023/05/28 04:49:21;;;;;;;;;;;;;;;;;;2213587;59;1240;-23
2023/05/28 04:51:52;;;;;;;;;;;;;;;;;;2214080;66;1376;-23
2023/05/28 04:54:22;;;;;;;;;;;;;;;;;;2213191;59;1677;-23
2023/05/28 04:56:52;;;;;;;;;;;;;;;;;;2214126;66;1117;-23
2023/05/28 04:59:23;;;;;;;;;;;;;;;;;;2207712;59;2276;-23
2023/05/28 05:01:53;;;;;;;;;;;;;;;;;;2214023;59;2105;-23
2023/05/28 05:04:23;;;;;;;;;;;;;;;;;;2214471;66;1816;-23
2023/05/28 05:06:56;;;;;;;;;;;;;;;;;;2210416;66;1336;-23
2023/05/28 05:09:27;;;;;;;;;;;;;;;;;;2213378;59;2209;-23
2023/05/28 05:11:57;;;;;;;;;;;;;;;;;;2209840;66;1235;-23
2023/05/28 05:14:27;;;;;;;;;;;;;;;;;;2214115;66;1252;-23
2023/05/28 05:16:58;;;;;;;;;;;;;;;;;;2214615;66;1652;-23
2023/05/28 05:19:28;;;;;;;;;;;;;;;;;;2213185;66;1287;-23
2023/05/28 05:21:58;;;;;;;;;;;;;;;;;;2213900;66;1997;-23
2023/05/28 05:24:28;;;;;;;;;;;;;;;;;;2210530;66;1171;-23
2023/05/28 05:26:59;;;;;;;;;;;;;;;;;;2214490;66;1172;-23
2023/05/28 05:29:32;;;;;;;;;;;;;;;;;;2213931;66;1831;-23
2023/05/28 05:32:02;;;;;;;;;;;;;;;;;;2214248;59;1392;-23
2023/05/28 05:34:32;;;;;;;;;;;;;;;;;;2214460;66;1571;-23
2023/05/28 05:37:03;;;;;;;;;;;;;;;;;;2213258;59;1296;-23
2023/05/28 05:39:33;;;;;;;;;;;;;;;;;;2209640;59;2215;-23
2023/05/28 05:42:03;;;;;;;;;;;;;;;;;;2209933;59;2159;-23
2023/05/28 05:44:33;;;;;;;;;;;;;;;;;;2210698;66;1969;-23
2023/05/28 05:47:04;;;;;;;;;;;;;;;;;;2213582;59;2192;-23
2023/05/28 05:49:34;;;;;;;;;;;;;;;;;;2210407;59;2484;-23
2023/05/28 05:52:05;;;;;;;;;;;;;;;;;;2213397;59;2089;-23
2023/05/28 05:54:35;;;;;;;;;;;;;;;;;;2213376;59;2440;-23
2023/05/28 05:57:05;;;;;;;;;;;;;;;;;;2213769;59;1781;-23
2023/05/28 05:59:35;;;;;;;;;;;;;;;;;;2211204;59;2285;-23
2023/05/28 06:02:06;;;;;;;;;;;;;;;;;;2213709;59;1935;-23
2023/05/28 06:04:36;;;;;;;;;;;;;;;;;;2213768;66;2115;-23
2023/05/28 06:07:06;;;;;;;;;;;;;;;;;;2212182;59;2066;-23
2023/05/28 06:09:37;;;;;;;;;;;;;;;;;;2210720;59;2061;-23
2023/05/28 06:12:07;;;;;;;;;;;;;;;;;;2212510;66;1865;-23
2023/05/28 06:14:38;;;;;;;;;;;;;;;;;;2213589;59;1460;-23
2023/05/28 06:17:09;;;;;;;;;;;;;;;;;;2210414;66;1623;-23
2023/05/28 06:19:42;;;;;;;;;;;;;;;;;;2209939;66;2287;-23
2023/05/28 06:22:12;;;;;;;;;;;;;;;;;;2213255;66;2000;-23
2023/05/28 06:24:42;;;;;;;;;;;;;;;;;;2214374;66;1768;-29
2023/05/28 06:27:13;;;;;;;;;;;;;;;;;;2210862;66;2075;-23
2023/05/28 06:29:43;;;;;;;;;;;;;;;;;;2214422;66;1705;-23
2023/05/28 06:32:13;;;;;;;;;;;;;;;;;;2214048;66;1839;-23
2023/05/28 06:34:43;;;;;;;;;;;;;;;;;;2214756;66;1580;-23
2023/05/28 06:37:13;;;;;;;;;;;;;;;;;;2213955;59;2100;-23
2023/05/28 06:39:44;;;;;;;;;;;;;;;;;;2214664;59;1969;-23
2023/05/28 06:42:14;;;;;;;;;;;;;;;;;;2213853;59;2032;-23
2023/05/28 06:44:44;;;;;;;;;;;;;;;;;;2211701;59;2002;-23
2023/05/28 06:47:15;;;;;;;;;;;;;;;;;;2213837;59;2210;-23
2023/05/28 06:49:45;;;;;;;;;;;;;;;;;;2214206;66;2437;-23
2023/05/28 06:52:16;;;;;;;;;;;;;;;;;;2214085;66;1832;-23
2023/05/28 06:54:46;;;;;;;;;;;;;;;;;;2214142;59;2025;-23
2023/05/28 06:57:16;;;;;;;;;;;;;;;;;;2214407;66;2259;-23
2023/05/28 06:59:47;;;;;;;;;;;;;;;;;;2212344;66;2571;-23
2023/05/28 07:02:17;;;;;;;;;;;;;;;;;;2210650;59;1946;-23
2023/05/28 07:04:47;;;;;;;;;;;;;;;;;;2214046;66;1626;-23
2023/05/28 07:07:17;;;;;;;;;;;;;;;;;;2213221;66;1905;-23
2023/05/28 07:09:48;;;;;;;;;;;;;;;;;;2214474;59;1312;-23
2023/05/28 07:12:18;;;;;;;;;;;;;;;;;;2213660;66;1732;-23
2023/05/28 07:14:48;;;;;;;;;;;;;;;;;;2211027;66;2372;-23
2023/05/28 07:17:20;;;;;;;;;;;;;;;;;;2213478;59;2068;-23
2023/05/28 07:19:50;;;;;;;;;;;;;;;;;;2213622;66;1562;-23
2023/05/28 07:22:20;;;;;;;;;;;;;;;;;;2213550;66;2040;-23
2023/05/28 07:24:51;;;;;;;;;;;;;;;;;;2213287;66;1702;-23
2023/05/28 07:27:21;;;;;;;;;;;;;;;;;;2212368;63;2610;-24
2023/05/28 07:29:56;;;;;;;;;;;;;;;;;;2213139;66;2264;-24
2023/05/28 07:32:26;;;;;;;;;;;;;;;;;;2209744;66;2008;-24
2023/05/28 07:34:56;;;;;;;;;;;;;;;;;;2210364;59;1608;-24
2023/05/28 07:37:26;;;;;;;;;;;;;;;;;;2213217;66;2318;-24
2023/05/28 07:39:56;;;;;;;;;;;;;;;;;;2210291;59;1939;-24
2023/05/28 07:42:27;;;;;;;;;;;;;;;;;;2209840;66;2359;-24
2023/05/28 07:44:57;;;;;;;;;;;;;;;;;;2209425;66;1590;-24
2023/05/28 07:47:27;;;;;;;;;;;;;;;;;;2200845;59;2617;-24
2023/05/28 07:49:57;;;;;;;;;;;;;;;;;;2208977;59;2447;-24
2023/05/28 07:52:29;;;;;;;;;;;;;;;;;;2208734;59;3078;-24
2023/05/28 07:54:59;;;;;;;;;;;;;;;;;;2207116;59;3058;-24
2023/05/28 07:57:30;;;;;;;;;;;;;;;;;;2210421;59;2469;-24
2023/05/28 08:00:06;;;;;;;;;;;;;;;;;;2209602;59;2794;-24
2023/05/28 08:02:36;;;;;;;;;;;;;;;;;;2205131;59;2790;-24
2023/05/28 08:05:07;;;;;;;;;;;;;;;;;;2208496;59;2432;-24
2023/05/28 08:07:38;;;;;;;;;;;;;;;;;;2213075;59;2655;-24
2023/05/28 08:10:08;;;;;;;;;;;;;;;;;;2209386;59;2571;-24
2023/05/28 08:12:38;;;;;;;;;;;;;;;;;;2212507;59;2037;-25
2023/05/28 08:15:09;;;;;;;;;;;;;;;;;;2212082;59;2559;-24
2023/05/28 08:17:40;;;;;;;;;;;;;;;;;;2211906;59;3430;-22
2023/05/28 08:20:11;;;;;;;;;;;;;;;;;;2207269;59;2612;-22
2023/05/28 08:22:42;;;;;;;;;;;;;;;;;;2213566;66;2505;-22
2023/05/28 08:25:12;;;;;;;;;;;;;;;;;;2212431;59;2738;-22
2023/05/28 08:27:43;;;;;;;;;;;;;;;;;;2211591;66;2503;-22
2023/05/28 08:30:13;;;;;;;;;;;;;;;;;;2212357;66;2975;-22
2023/05/28 08:32:43;;;;;;;;;;;;;;;;;;2206530;59;2590;-22
2023/05/28 08:35:14;;;;;;;;;;;;;;;;;;2212553;59;2972;-22
2023/05/28 08:37:44;;;;;;;;;;;;;;;;;;2207772;59;2630;-22
2023/05/28 08:40:15;;;;;;;;;;;;;;;;;;2210188;66;1886;-22
2023/05/28 08:42:45;;;;;;;;;;;;;;;;;;2209471;66;2431;-22
2023/05/28 08:45:16;;;;;;;;;;;;;;;;;;2209802;66;2327;-22
2023/05/28 08:47:47;;;;;;;;;;;;;;;;;;2207298;59;2585;-22
2023/05/28 08:50:18;;;;;;;;;;;;;;;;;;2213021;59;2505;-22
2023/05/28 08:52:50;;;;;;;;;;;;;;;;;;2211730;59;3249;-22
2023/05/28 08:55:20;;;;;;;;;;;;;;;;;;2212991;66;2544;-22
2023/05/28 08:57:51;;;;;;;;;;;;;;;;;;2213865;59;2243;-22
2023/05/28 09:00:22;;;;;;;;;;;;;;;;;;2212837;59;2466;-22
2023/05/28 09:02:53;;;;;;;;;;;;;;;;;;2213375;66;2000;-22
2023/05/28 09:05:23;;;;;;;;;;;;;;;;;;2213453;66;2663;-22
2023/05/28 09:07:53;;;;;;;;;;;;;;;;;;2212372;66;2480;-22
2023/05/28 09:10:23;;;;;;;;;;;;;;;;;;2213078;59;3324;-22
2023/05/28 09:12:58;;;;;;;;;;;;;;;;;;2213019;66;2432;-22
2023/05/28 09:15:29;;;;;;;;;;;;;;;;;;2213143;66;2195;-22
2023/05/28 09:18:00;;;;;;;;;;;;;;;;;;2214426;59;3480;-22
2023/05/28 09:20:30;;;;;;;;;;;;;;;;;;2211874;59;2545;-22
2023/05/28 09:23:02;;;;;;;;;;;;;;;;;;2212857;59;2210;-22
2023/05/28 09:25:35;;;;;;;;;;;;;;;;;;2212581;59;2037;-23
2023/05/28 09:28:06;;;;;;;;;;;;;;;;;;2213635;66;2511;-22
2023/05/28 09:30:37;;;;;;;;;;;;;;;;;;2212586;59;1846;-22
2023/05/28 09:33:08;;;;;;;;;;;;;;;;;;2212764;66;2263;-22
2023/05/28 09:35:38;;;;;;;;;;;;;;;;;;2212960;59;2281;-22
2023/05/28 09:38:11;;;;;;;;;;;;;;;;;;2212825;59;3008;-22
2023/05/28 09:40:42;;;;;;;;;;;;;;;;;;2214017;59;2431;-22
2023/05/28 09:43:12;;;;;;;;;;;;;;;;;;2213118;59;2427;-23
2023/05/28 09:45:43;;;;;;;;;;;;;;;;;;2215067;66;1803;-23
2023/05/28 09:48:14;;;;;;;;;;;;;;;;;;2207939;59;2676;-22
2023/05/28 09:50:44;;;;;;;;;;;;;;;;;;2213348;59;2258;-22
2023/05/28 09:53:16;;;;;;;;;;;;;;;;;;2209334;53;3674;-19
2023/05/28 09:55:47;;;;;;;;;;;;;;;;;;2200315;59;2330;-18
2023/05/28 09:58:17;;;;;;;;;;;;;;;;;;2199941;59;2503;-18
2023/05/28 10:00:52;;;;;;;;;;;;;;;;;;2202261;59;2291;-18
2023/05/28 10:03:24;;;;;;;;;;;;;;;;;;2200571;59;2349;-18
2023/05/28 10:05:56;;;;;;;;;;;;;;;;;;2202232;60;2311;-18
2023/05/28 10:08:27;;;;;;;;;;;;;;;;;;2202316;66;2101;-18
2023/05/28 10:10:58;;;;;;;;;;;;;;;;;;2202151;59;2039;-20
2023/05/28 10:13:30;;;;;;;;;;;;;;;;;;2202229;66;2533;-20
2023/05/28 10:16:00;;;;;;;;;;;;;;;;;;2202571;59;2329;-20
2023/05/28 10:18:31;;;;;;;;;;;;;;;;;;2202006;66;2423;-20
2023/05/28 10:21:02;;;;;;;;;;;;;;;;;;2202503;66;1945;-21
2023/05/28 10:23:33;;;;;;;;;;;;;;;;;;2201789;66;3287;-21
2023/05/28 10:26:04;;;;;;;;;;;;;;;;;;2216290;58;2049;-21
2023/05/28 10:28:34;;;;;;;;;;;;;;;;;;2201878;66;1384;-21
2023/05/28 10:31:09;;;;;;;;;;;;;;;;;;2202128;59;1428;-21
2023/05/28 10:33:41;;;;;;;;;;;;;;;;;;2202716;59;1630;-21
2023/05/28 10:36:12;;;;;;;;;;;;;;;;;;2201533;66;1833;-21
2023/05/28 10:38:44;;;;;;;;;;;;;;;;;;2202210;66;1741;-21
2023/05/28 10:41:19;;;;;;;;;;;;;;;;;;2201202;59;2145;-21
2023/05/28 10:43:50;;;;;;;;;;;;;;;;;;2202396;66;1584;-20
2023/05/28 10:46:24;;;;;;;;;;;;;;;;;;2198719;59;2327;-21
2023/05/28 10:49:09;;;;;;;;;;;;;;;;;;2201961;66;1259;-21
2023/05/28 10:51:56;;;;;;;;;;;;;;;;;;2201221;59;2443;-21
2023/05/28 10:54:30;;;;;;;;;;;;;;;;;;2200347;59;2718;-21
2023/05/28 10:57:11;;;;;;;;;;;;;;;;;;2197804;59;2475;-21
2023/05/28 10:59:45;;;;;;;;;;;;;;;;;;2200858;59;2266;-21
2023/05/28 11:02:25;;;;;;;;;;;;;;;;;;2200443;59;1921;-20
2023/05/28 11:04:56;;;;;;;;;;;;;;;;;;2201565;66;2533;-21
2023/05/28 11:07:33;;;;;;;;;;;;;;;;;;2200877;59;2907;-20
2023/05/28 11:10:05;;;;;;;;;;;;;;;;;;2201910;66;1525;-20
2023/05/28 11:12:36;;;;;;;;;;;;;;;;;;2200677;59;2119;-21
2023/05/28 11:15:10;;;;;;;;;;;;;;;;;;2199881;59;2736;-20
2023/05/28 11:17:42;;;;;;;;;;;;;;;;;;2201039;59;2619;-21
2023/05/28 11:20:25;;;;;;;;;;;;;;;;;;2201549;66;2647;-21
2023/05/28 11:22:56;;;;;;;;;;;;;;;;;;2200752;59;2232;-21
2023/05/28 11:25:26;;;;;;;;;;;;;;;;;;2201508;59;2401;-21
2023/05/28 11:27:59;;;;;;;;;;;;;;;;;;2200427;59;2226;-21
2023/05/28 11:30:30;;;;;;;;;;;;;;;;;;2201050;66;3255;-21
2023/05/28 11:33:01;;;;;;;;;;;;;;;;;;2201827;59;2753;-21
2023/05/28 11:35:32;;;;;;;;;;;;;;;;;;2201058;59;2303;-21
2023/05/28 11:38:02;;;;;;;;;;;;;;;;;;2202039;59;1389;-21
2023/05/28 11:40:33;;;;;;;;;;;;;;;;;;2200319;59;2123;-21
2023/05/28 11:43:04;;;;;;;;;;;;;;;;;;2201738;59;2141;-21
2023/05/28 11:45:38;;;;;;;;;;;;;;;;;;2198061;59;2472;-21
2023/05/28 11:48:12;;;;;;;;;;;;;;;;;;2201904;59;2151;-21
2023/05/28 11:50:43;;;;;;;;;;;;;;;;;;2202654;59;1285;-21
2023/05/28 11:53:13;;;;;;;;;;;;;;;;;;2201686;59;1737;-21
2023/05/28 11:55:43;;;;;;;;;;;;;;;;;;2200829;59;1252;-21
2023/05/28 11:58:14;;;;;;;;;;;;;;;;;;2201604;66;2105;-21
2023/05/28 12:00:55;;;;;;;;;;;;;;;;;;2200677;59;2182;-21
2023/05/28 12:03:28;;;;;;;;;;;;;;;;;;2202553;59;2352;-21
2023/05/28 12:05:58;;;;;;;;;;;;;;;;;;2202898;66;1372;-21
2023/05/28 12:08:28;;;;;;;;;;;;;;;;;;2202960;66;1736;-21
2023/05/28 12:11:00;;;;;;;;;;;;;;;;;;2202988;66;1116;-20
2023/05/28 12:13:32;;;;;;;;;;;;;;;;;;2202398;66;1380;-20
2023/05/28 12:16:09;;;;;;;;;;;;;;;;;;2202791;66;1478;-20
2023/05/28 12:18:45;;;;;;;;;;;;;;;;;;2201281;59;2025;-20
2023/05/28 12:21:18;;;;;;;;;;;;;;;;;;2201690;66;1990;-21
2023/05/28 12:23:48;;;;;;;;;;;;;;;;;;2201344;66;1213;-20
2023/05/28 12:26:19;;;;;;;;;;;;;;;;;;2201402;59;1604;-20
2023/05/28 12:28:49;;;;;;;;;;;;;;;;;;2201088;59;2694;-21
2023/05/28 12:31:26;;;;;;;;;;;;;;;;;;2201367;59;2471;-20
2023/05/28 12:33:56;;;;;;;;;;;;;;;;;;2201905;59;1731;-21
2023/05/28 12:36:27;;;;;;;;;;;;;;;;;;2202113;59;1566;-20
2023/05/28 12:38:57;;;;;;;;;;;;;;;;;;2202548;59;1461;-21
2023/05/28 12:41:27;;;;;;;;;;;;;;;;;;2204631;66;2451;-20
2023/05/28 12:43:57;;;;;;;;;;;;;;;;;;2203007;59;3062;-20
2023/05/28 12:46:27;;;;;;;;;;;;;;;;;;2203133;59;2473;-21
2023/05/28 12:49:01;;;;;;;;;;;;;;;;;;2202688;66;1961;-20
2023/05/28 12:51:32;;;;;;;;;;;;;;;;;;2202864;59;2898;-20
2023/05/28 12:54:02;;;;;;;;;;;;;;;;;;2202612;59;2352;-20
2023/05/28 12:56:32;;;;;;;;;;;;;;;;;;2203460;63;2406;-20
2023/05/28 12:59:02;;;;;;;;;;;;;;;;;;2204036;59;2505;-20
2023/05/28 13:01:33;;;;;;;;;;;;;;;;;;2199637;59;2523;-20
2023/05/28 13:04:03;;;;;;;;;;;;;;;;;;2203354;66;2257;-20
2023/05/28 13:06:34;;;;;;;;;;;;;;;;;;2204878;66;2006;-20
2023/05/28 13:09:05;;;;;;;;;;;;;;;;;;2205838;66;1814;-20
2023/05/28 13:11:36;;;;;;;;;;;;;;;;;;2204156;59;3007;-18
2023/05/28 13:14:06;;;;;;;;;;;;;;;;;;2205443;66;2055;-18
2023/05/28 13:16:37;;;;;;;;;;;;;;;;;;2203586;66;2340;-18
2023/05/28 13:19:07;;;;;;;;;;;;;;;;;;2203036;66;2684;-18
2023/05/28 13:21:37;;;;;;;;;;;;;;;;;;2202735;66;2029;-18
2023/05/28 13:24:07;;;;;;;;;;;;;;;;;;2203308;66;2587;-18
2023/05/28 13:26:38;;;;;;;;;;;;;;;;;;2203746;59;1716;-18
2023/05/28 13:29:08;;;;;;;;;;;;;;;;;;2201975;59;2910;-18
2023/05/28 13:31:38;;;;;;;;;;;;;;;;;;2201820;66;2403;-18
2023/05/28 13:34:08;;;;;;;;;;;;;;;;;;2203798;59;1596;-18
2023/05/28 13:36:39;;;;;;;;;;;;;;;;;;2202448;59;2796;-18
2023/05/28 13:39:09;;;;;;;;;;;;;;;;;;2202140;59;2301;-18
2023/05/28 13:41:40;;;;;;;;;;;;;;;;;;2203398;66;2557;-18
2023/05/28 13:44:10;;;;;;;;;;;;;;;;;;2202174;66;2688;-18
2023/05/28 13:46:40;;;;;;;;;;;;;;;;;;2201940;59;2709;-18
2023/05/28 13:49:10;;;;;;;;;;;;;;;;;;2202529;59;2513;-18
2023/05/28 13:51:41;;;;;;;;;;;;;;;;;;2202974;59;1728;-18
2023/05/28 13:54:12;;;;;;;;;;;;;;;;;;2202290;59;2559;-18
2023/05/28 13:56:42;;;;;;;;;;;;;;;;;;2203238;66;2292;-18
2023/05/28 13:59:12;;;;;;;;;;;;;;;;;;2201192;59;2278;-18
2023/05/28 14:01:43;;;;;;;;;;;;;;;;;;2201781;59;2020;-18
2023/05/28 14:04:13;;;;;;;;;;;;;;;;;;2202795;59;2803;-18
2023/05/28 14:06:46;;;;;;;;;;;;;;;;;;2202951;66;2936;-18
2023/05/28 14:09:16;;;;;;;;;;;;;;;;;;2202101;66;2667;-18
2023/05/28 14:11:47;;;;;;;;;;;;;;;;;;2202371;59;2200;-18
2023/05/28 14:14:17;;;;;;;;;;;;;;;;;;2200776;66;2928;-18
2023/05/28 14:16:47;;;;;;;;;;;;;;;;;;2201949;66;1609;-18
2023/05/28 14:19:17;;;;;;;;;;;;;;;;;;2201674;59;2206;-18
2023/05/28 14:21:48;;;;;;;;;;;;;;;;;;2203130;66;2648;-18
2023/05/28 14:24:18;;;;;;;;;;;;;;;;;;2202504;59;1257;-18
2023/05/28 14:26:48;;;;;;;;;;;;;;;;;;2204132;59;1363;-18
2023/05/28 14:29:18;;;;;;;;;;;;;;;;;;2203583;66;1263;-18
2023/05/28 14:31:49;;;;;;;;;;;;;;;;;;2203628;60;2867;-18
2023/05/28 14:34:19;;;;;;;;;;;;;;;;;;2202828;66;2544;-18
2023/05/28 14:36:49;;;;;;;;;;;;;;;;;;2203148;59;1670;-18
2023/05/28 14:39:20;;;;;;;;;;;;;;;;;;2203261;59;2288;-18
2023/05/28 14:41:51;;;;;;;;;;;;;;;;;;2202549;66;2366;-18
2023/05/28 14:44:21;;;;;;;;;;;;;;;;;;2202367;66;3738;-18
2023/05/28 14:46:51;;;;;;;;;;;;;;;;;;2203000;59;2547;-18
2023/05/28 14:49:22;;;;;;;;;;;;;;;;;;2201924;59;2992;-18
2023/05/28 14:52:18;;;;;;;;;;;;;;;;;;2202558;66;1922;-18
2023/05/28 14:54:49;;;;;;;;;;;;;;;;;;2202092;59;2320;-18
2023/05/28 14:57:23;;;;;;;;;;;;;;;;;;2201228;66;2494;-18
2023/05/28 14:59:58;;;;;;;;;;;;;;;;;;2202603;59;2807;-18
2023/05/28 15:02:29;;;;;;;;;;;;;;;;;;2202927;59;2753;-18
2023/05/28 15:04:59;;;;;;;;;;;;;;;;;;2202517;59;1915;-18
2023/05/28 15:07:32;;;;;;;;;;;;;;;;;;2202501;66;3462;-20
2023/05/28 15:10:03;;;;;;;;;;;;;;;;;;2201726;66;2653;-20
2023/05/28 15:12:33;;;;;;;;;;;;;;;;;;2201381;66;2169;-20
2023/05/28 15:15:04;;;;;;;;;;;;;;;;;;2202625;66;2676;-20
2023/05/28 15:17:34;;;;;;;;;;;;;;;;;;2202557;59;2944;-20
2023/05/28 15:20:05;;;;;;;;;;;;;;;;;;2202881;59;2302;-20
2023/05/28 15:22:35;;;;;;;;;;;;;;;;;;2200836;59;3753;-20
2023/05/28 15:25:06;;;;;;;;;;;;;;;;;;2203702;66;2203;-20
2023/05/28 15:27:38;;;;;;;;;;;;;;;;;;2203179;59;2384;-20
2023/05/28 15:30:08;;;;;;;;;;;;;;;;;;2202121;59;7111;-20
2023/05/28 15:32:39;;;;;;;;;;;;;;;;;;2202032;59;2666;-20
2023/05/28 15:35:09;;;;;;;;;;;;;;;;;;2201512;59;2397;-21
2023/05/28 15:37:40;;;;;;;;;;;;;;;;;;2201792;59;2191;-20
2023/05/28 15:40:11;;;;;;;;;;;;;;;;;;2202226;59;2593;-20
2023/05/28 15:42:41;;;;;;;;;;;;;;;;;;2202174;66;1992;-20
2023/05/28 15:45:12;;;;;;;;;;;;;;;;;;2202143;66;3946;-20
2023/05/28 15:47:42;;;;;;;;;;;;;;;;;;2202036;66;2155;-20
2023/05/28 15:50:12;;;;;;;;;;;;;;;;;;2201414;59;2464;-20
2023/05/28 15:52:42;;;;;;;;;;;;;;;;;;2202290;59;2970;-20
2023/05/28 15:55:13;;;;;;;;;;;;;;;;;;2201472;59;2462;-20
2023/05/28 15:57:43;;;;;;;;;;;;;;;;;;2202300;59;2064;-20
2023/05/28 16:00:13;;;;;;;;;;;;;;;;;;2201804;59;2221;-20
2023/05/28 16:02:44;;;;;;;;;;;;;;;;;;2201781;59;2740;-21
2023/05/28 16:05:15;;;;;;;;;;;;;;;;;;2200921;59;2481;-20
2023/05/28 16:07:45;;;;;;;;;;;;;;;;;;2202236;66;1831;-20
2023/05/28 16:10:16;;;;;;;;;;;;;;;;;;2201650;59;2216;-20
2023/05/28 16:12:48;;;;;;;;;;;;;;;;;;2202172;66;1242;-20
2023/05/28 16:15:19;;;;;;;;;;;;;;;;;;2204215;59;2069;-20
2023/05/28 16:17:51;;;;;;;;;;;;;;;;;;2203417;66;1195;-20
2023/05/28 16:20:21;;;;;;;;;;;;;;;;;;2204087;66;1301;-20
2023/05/28 16:22:52;;;;;;;;;;;;;;;;;;2203745;66;1989;-20
2023/05/28 16:25:22;;;;;;;;;;;;;;;;;;2203102;53;2050;-23
2023/05/28 16:27:53;;;;;;;;;;;;;;;;;;2196234;67;2814;-24
2023/05/28 16:30:24;;;;;;;;;;;;;;;;;;2195874;67;2824;-24
2023/05/28 16:32:57;;;;;;;;;;;;;;;;;;2196385;67;2621;-24
2023/05/28 16:35:29;;;;;;;;;;;;;;;;;;2195346;59;2443;-24
2023/05/28 16:38:00;;;;;;;;;;;;;;;;;;2196504;59;1839;-24
2023/05/28 16:40:30;;;;;;;;;;;;;;;;;;2196292;67;2166;-24
2023/05/28 16:43:00;;;;;;;;;;;;;;;;;;2196120;59;2360;-24
2023/05/28 16:45:31;;;;;;;;;;;;;;;;;;2195234;67;3318;-24
2023/05/28 16:48:02;;;;;;;;;;;;;;;;;;2196167;67;1790;-24
2023/05/28 16:50:32;;;;;;;;;;;;;;;;;;2193780;59;2193;-24
2023/05/28 16:53:02;;;;;;;;;;;;;;;;;;2196164;59;2326;-23
2023/05/28 16:55:32;;;;;;;;;;;;;;;;;;2195872;59;1776;-24
2023/05/28 16:58:03;;;;;;;;;;;;;;;;;;2196651;67;2158;-24
2023/05/28 17:00:33;;;;;;;;;;;;;;;;;;2196377;59;1562;-24
2023/05/28 17:03:03;;;;;;;;;;;;;;;;;;2198501;59;2284;-24
2023/05/28 17:05:33;;;;;;;;;;;;;;;;;;2196792;66;2855;-24
2023/05/28 17:08:04;;;;;;;;;;;;;;;;;;2196192;59;2350;-24
2023/05/28 17:10:34;;;;;;;;;;;;;;;;;;2196392;67;2277;-24
2023/05/28 17:13:04;;;;;;;;;;;;;;;;;;2195858;66;2749;-24
2023/05/28 17:15:35;;;;;;;;;;;;;;;;;;2195359;67;2311;-23
2023/05/28 17:18:05;;;;;;;;;;;;;;;;;;2196267;67;2160;-23
2023/05/28 17:20:37;;;;;;;;;;;;;;;;;;2197612;67;2888;-24
2023/05/28 17:23:07;;;;;;;;;;;;;;;;;;2199584;66;2712;-24
2023/05/28 17:25:38;;;;;;;;;;;;;;;;;;2196938;59;2469;-24
2023/05/28 17:28:08;;;;;;;;;;;;;;;;;;2196525;66;1740;-23